sensor_id;sensor_type;location;lat;lon;timestamp;pressure;altitude;pressure_sealevel;temperature;humidity
66689;BME280;53587;59.318;18.084;2023-10-31T00:00:04;99658.75;;;19.26;91.26
66689;BME280;53587;59.318;18.084;2023-10-31T00:02:30;99663.59;;;19.46;88.93
66689;BME280;53587;59.318;18.084;2023-10-31T00:04:55;99656.28;;;18.89;77.96
66689;BME280;53587;59.318;18.084;2023-10-31T00:07:20;99658.22;;;17.68;76.11
66689;BME280;53587;59.318;18.084;2023-10-31T00:09:46;99661.97;;;17.72;81.65
66689;BME280;53587;59.318;18.084;2023-10-31T00:12:11;99659.81;;;17.92;87.67
66689;BME280;53587;59.318;18.084;2023-10-31T00:14:36;99656.13;;;18.28;91.82
66689;BME280;53587;59.318;18.084;2023-10-31T00:17:01;99656.88;;;18.60;91.13
66689;BME280;53587;59.318;18.084;2023-10-31T00:19:26;99657.06;;;18.90;90.00
66689;BME280;53587;59.318;18.084;2023-10-31T00:21:52;99656.81;;;19.18;88.87
66689;BME280;53587;59.318;18.084;2023-10-31T00:24:17;99661.81;;;19.33;85.73
66689;BME280;53587;59.318;18.084;2023-10-31T00:26:42;99653.72;;;18.35;75.82
66689;BME280;53587;59.318;18.084;2023-10-31T00:29:08;99653.56;;;18.00;77.48
66689;BME280;53587;59.318;18.084;2023-10-31T00:31:33;99653.25;;;17.79;80.11
66689;BME280;53587;59.318;18.084;2023-10-31T00:34:00;99655.56;;;18.08;88.66
66689;BME280;53587;59.318;18.084;2023-10-31T00:36:25;99660.03;;;18.35;92.32
66689;BME280;53587;59.318;18.084;2023-10-31T00:38:50;99653.44;;;18.63;91.86
66689;BME280;53587;59.318;18.084;2023-10-31T00:41:16;99659.03;;;18.89;90.95
66689;BME280;53587;59.318;18.084;2023-10-31T00:43:41;99658.13;;;19.11;89.80
66689;BME280;53587;59.318;18.084;2023-10-31T00:46:06;99652.41;;;19.34;88.32
66689;BME280;53587;59.318;18.084;2023-10-31T00:48:31;99646.38;;;19.32;81.93
66689;BME280;53587;59.318;18.084;2023-10-31T00:51:01;99646.91;;;18.41;73.01
66689;BME280;53587;59.318;18.084;2023-10-31T00:53:26;99647.06;;;17.96;77.45
66689;BME280;53587;59.318;18.084;2023-10-31T00:55:52;99647.94;;;17.82;84.38
66689;BME280;53587;59.318;18.084;2023-10-31T00:58:17;99652.47;;;18.10;90.05
66689;BME280;53587;59.318;18.084;2023-10-31T01:00:42;99645.91;;;18.37;91.86
66689;BME280;53587;59.318;18.084;2023-10-31T01:03:07;99641.28;;;18.64;91.93
66689;BME280;53587;59.318;18.084;2023-10-31T01:05:32;99646.69;;;18.87;91.30
66689;BME280;53587;59.318;18.084;2023-10-31T01:07:58;99635.53;;;19.09;89.02
66689;BME280;53587;59.318;18.084;2023-10-31T01:10:23;99624.13;;;19.28;87.76
66689;BME280;53587;59.318;18.084;2023-10-31T01:12:48;99629.66;;;18.93;78.30
66689;BME280;53587;59.318;18.084;2023-10-31T01:15:13;99628.91;;;17.95;74.03
66689;BME280;53587;59.318;18.084;2023-10-31T01:17:39;99635.56;;;17.71;79.24
66689;BME280;53587;59.318;18.084;2023-10-31T01:20:05;99642.41;;;17.82;86.64
66689;BME280;53587;59.318;18.084;2023-10-31T01:22:31;99651.84;;;18.13;91.03
66689;BME280;53587;59.318;18.084;2023-10-31T01:24:56;99646.91;;;18.41;93.08
66689;BME280;53587;59.318;18.084;2023-10-31T01:27:22;99645.06;;;18.68;91.97
66689;BME280;53587;59.318;18.084;2023-10-31T01:29:47;99640.50;;;18.90;91.07
66689;BME280;53587;59.318;18.084;2023-10-31T01:32:12;99637.63;;;19.12;88.90
66689;BME280;53587;59.318;18.084;2023-10-31T01:34:37;99634.22;;;19.33;87.16
66689;BME280;53587;59.318;18.084;2023-10-31T01:37:02;99643.28;;;18.90;78.04
66689;BME280;53587;59.318;18.084;2023-10-31T01:39:28;99633.19;;;18.18;73.60
66689;BME280;53587;59.318;18.084;2023-10-31T01:41:53;99629.47;;;17.83;78.07
66689;BME280;53587;59.318;18.084;2023-10-31T01:44:19;99634.19;;;17.91;87.43
66689;BME280;53587;59.318;18.084;2023-10-31T01:46:45;99626.88;;;18.18;90.45
66689;BME280;53587;59.318;18.084;2023-10-31T01:49:10;99622.28;;;18.45;92.21
66689;BME280;53587;59.318;18.084;2023-10-31T01:51:35;99624.91;;;18.67;92.57
66689;BME280;53587;59.318;18.084;2023-10-31T01:54:00;99614.38;;;18.87;90.80
66689;BME280;53587;59.318;18.084;2023-10-31T01:56:26;99609.03;;;19.08;88.67
66689;BME280;53587;59.318;18.084;2023-10-31T01:58:51;99610.66;;;19.27;87.16
66689;BME280;53587;59.318;18.084;2023-10-31T02:01:17;99609.03;;;19.08;79.54
66689;BME280;53587;59.318;18.084;2023-10-31T02:03:43;99609.59;;;18.35;72.91
66689;BME280;53587;59.318;18.084;2023-10-31T02:06:09;99610.69;;;17.94;77.07
66689;BME280;53587;59.318;18.084;2023-10-31T02:08:36;99610.97;;;17.83;84.76
66689;BME280;53587;59.318;18.084;2023-10-31T02:11:01;99612.91;;;18.06;89.29
66689;BME280;53587;59.318;18.084;2023-10-31T02:13:26;99615.72;;;18.32;92.39
66689;BME280;53587;59.318;18.084;2023-10-31T02:15:51;99616.13;;;18.57;91.83
66689;BME280;53587;59.318;18.084;2023-10-31T02:18:17;99611.59;;;18.78;90.20
66689;BME280;53587;59.318;18.084;2023-10-31T02:20:42;99615.06;;;19.02;89.20
66689;BME280;53587;59.318;18.084;2023-10-31T02:23:07;99605.31;;;19.22;86.53
66689;BME280;53587;59.318;18.084;2023-10-31T02:25:32;99604.34;;;19.09;80.08
66689;BME280;53587;59.318;18.084;2023-10-31T02:27:58;99598.25;;;18.45;72.98
66689;BME280;53587;59.318;18.084;2023-10-31T02:30:23;99598.88;;;17.93;76.90
66689;BME280;53587;59.318;18.084;2023-10-31T02:32:49;99590.41;;;17.90;84.06
66689;BME280;53587;59.318;18.084;2023-10-31T02:35:15;99594.91;;;18.08;89.56
66689;BME280;53587;59.318;18.084;2023-10-31T02:37:41;99595.31;;;18.33;92.21
66689;BME280;53587;59.318;18.084;2023-10-31T02:40:06;99597.97;;;18.56;91.51
66689;BME280;53587;59.318;18.084;2023-10-31T02:42:32;99588.69;;;18.78;89.38
66689;BME280;53587;59.318;18.084;2023-10-31T02:44:57;99591.69;;;18.99;88.75
66689;BME280;53587;59.318;18.084;2023-10-31T02:47:22;99597.69;;;19.19;87.12
66689;BME280;53587;59.318;18.084;2023-10-31T02:49:47;99598.97;;;19.30;84.48
66689;BME280;53587;59.318;18.084;2023-10-31T02:52:12;99598.44;;;18.75;76.54
66689;BME280;53587;59.318;18.084;2023-10-31T02:54:37;99595.75;;;18.17;77.55
66689;BME280;53587;59.318;18.084;2023-10-31T02:57:03;99598.69;;;17.90;79.93
66689;BME280;53587;59.318;18.084;2023-10-31T02:59:28;99597.44;;;17.96;86.94
66689;BME280;53587;59.318;18.084;2023-10-31T03:01:55;99590.72;;;18.19;90.55
66689;BME280;53587;59.318;18.084;2023-10-31T03:04:21;99601.66;;;18.42;90.96
66689;BME280;53587;59.318;18.084;2023-10-31T03:06:46;99603.78;;;18.63;90.13
66689;BME280;53587;59.318;18.084;2023-10-31T03:09:11;99607.88;;;18.83;89.45
66689;BME280;53587;59.318;18.084;2023-10-31T03:11:36;99614.75;;;19.03;88.00
66689;BME280;53587;59.318;18.084;2023-10-31T03:14:02;99626.25;;;19.23;86.48
66689;BME280;53587;59.318;18.084;2023-10-31T03:16:27;99623.81;;;18.95;80.27
66689;BME280;53587;59.318;18.084;2023-10-31T03:18:52;99618.94;;;18.16;76.13
66689;BME280;53587;59.318;18.084;2023-10-31T03:21:18;99623.75;;;18.02;78.79
66689;BME280;53587;59.318;18.084;2023-10-31T03:23:46;99628.13;;;17.80;81.98
66689;BME280;53587;59.318;18.084;2023-10-31T03:26:11;99629.44;;;18.06;90.01
66689;BME280;53587;59.318;18.084;2023-10-31T03:28:36;99629.03;;;18.30;91.63
66689;BME280;53587;59.318;18.084;2023-10-31T03:31:01;99636.09;;;18.54;92.40
66689;BME280;53587;59.318;18.084;2023-10-31T03:33:27;99627.84;;;18.71;92.00
66689;BME280;53587;59.318;18.084;2023-10-31T03:35:52;99624.78;;;18.90;89.85
66689;BME280;53587;59.318;18.084;2023-10-31T03:38:17;99637.16;;;19.10;88.05
66689;BME280;53587;59.318;18.084;2023-10-31T03:40:42;99626.75;;;19.25;86.77
66689;BME280;53587;59.318;18.084;2023-10-31T03:43:08;99630.97;;;19.40;86.13
66689;BME280;53587;59.318;18.084;2023-10-31T03:45:33;99634.41;;;19.10;80.39
66689;BME280;53587;59.318;18.084;2023-10-31T03:47:58;99630.41;;;18.59;77.55
66689;BME280;53587;59.318;18.084;2023-10-31T03:50:23;99633.38;;;18.22;80.36
66689;BME280;53587;59.318;18.084;2023-10-31T03:52:49;99629.91;;;17.99;80.72
66689;BME280;53587;59.318;18.084;2023-10-31T03:55:14;99617.75;;;18.09;88.46
66689;BME280;53587;59.318;18.084;2023-10-31T03:57:39;99615.56;;;18.28;91.98
66689;BME280;53587;59.318;18.084;2023-10-31T04:00:05;99619.03;;;18.51;92.15
66689;BME280;53587;59.318;18.084;2023-10-31T04:02:32;99612.22;;;18.66;91.50
66689;BME280;53587;59.318;18.084;2023-10-31T04:04:57;99609.19;;;18.86;89.59
66689;BME280;53587;59.318;18.084;2023-10-31T04:07:22;99615.22;;;19.05;88.42
66689;BME280;53587;59.318;18.084;2023-10-31T04:09:47;99608.72;;;19.36;88.67
66689;BME280;53587;59.318;18.084;2023-10-31T04:12:13;99616.81;;;19.50;83.50
66689;BME280;53587;59.318;18.084;2023-10-31T04:14:38;99610.47;;;18.71;74.20
66689;BME280;53587;59.318;18.084;2023-10-31T04:17:03;99607.63;;;18.27;79.51
66689;BME280;53587;59.318;18.084;2023-10-31T04:19:29;99610.28;;;18.49;86.81
66689;BME280;53587;59.318;18.084;2023-10-31T04:21:54;99616.84;;;19.06;92.07
66689;BME280;53587;59.318;18.084;2023-10-31T04:24:19;99621.00;;;19.56;94.49
66689;BME280;53587;59.318;18.084;2023-10-31T04:26:45;99618.16;;;20.00;94.09
66689;BME280;53587;59.318;18.084;2023-10-31T04:29:10;99616.56;;;19.90;85.31
66689;BME280;53587;59.318;18.084;2023-10-31T04:31:35;99617.13;;;18.12;69.86
66689;BME280;53587;59.318;18.084;2023-10-31T04:34:00;99621.47;;;18.53;87.98
66689;BME280;53587;59.318;18.084;2023-10-31T04:36:26;99616.19;;;19.27;92.08
66689;BME280;53587;59.318;18.084;2023-10-31T04:38:51;99613.16;;;19.85;93.86
66689;BME280;53587;59.318;18.084;2023-10-31T04:41:16;99616.78;;;19.59;81.05
66689;BME280;53587;59.318;18.084;2023-10-31T04:43:42;99611.88;;;17.38;67.84
66689;BME280;53587;59.318;18.084;2023-10-31T04:46:07;99612.25;;;18.75;90.83
66689;BME280;53587;59.318;18.084;2023-10-31T04:48:32;99609.31;;;19.51;94.33
66689;BME280;53587;59.318;18.084;2023-10-31T04:50:58;99603.75;;;19.77;88.63
66689;BME280;53587;59.318;18.084;2023-10-31T04:53:23;99593.84;;;18.35;69.28
66689;BME280;53587;59.318;18.084;2023-10-31T04:55:48;99601.00;;;18.45;88.30
66689;BME280;53587;59.318;18.084;2023-10-31T04:58:13;99602.34;;;19.36;93.91
66689;BME280;53587;59.318;18.084;2023-10-31T05:00:39;99601.59;;;19.83;93.28
66689;BME280;53587;59.318;18.084;2023-10-31T05:03:05;99583.19;;;18.69;73.77
66689;BME280;53587;59.318;18.084;2023-10-31T05:05:30;99597.31;;;18.01;88.45
66689;BME280;53587;59.318;18.084;2023-10-31T05:07:55;99590.19;;;19.19;94.27
66689;BME280;53587;59.318;18.084;2023-10-31T05:10:21;99592.88;;;19.72;93.61
66689;BME280;53587;59.318;18.084;2023-10-31T05:12:46;99595.84;;;18.53;73.71
66689;BME280;53587;59.318;18.084;2023-10-31T05:15:11;99603.06;;;18.31;87.94
66689;BME280;53587;59.318;18.084;2023-10-31T05:17:36;99611.66;;;19.31;94.18
66689;BME280;53587;59.318;18.084;2023-10-31T05:20:02;99618.69;;;19.85;92.75
66689;BME280;53587;59.318;18.084;2023-10-31T05:22:27;99617.28;;;18.73;75.31
66689;BME280;53587;59.318;18.084;2023-10-31T05:24:52;99622.00;;;17.83;85.85
66689;BME280;53587;59.318;18.084;2023-10-31T05:27:19;99631.78;;;19.14;94.17
66689;BME280;53587;59.318;18.084;2023-10-31T05:29:44;99632.66;;;19.79;94.93
66689;BME280;53587;59.318;18.084;2023-10-31T05:32:09;99621.69;;;18.74;75.54
66689;BME280;53587;59.318;18.084;2023-10-31T05:34:34;99623.63;;;17.84;86.88
66689;BME280;53587;59.318;18.084;2023-10-31T05:37:00;99622.03;;;19.17;94.44
66689;BME280;53587;59.318;18.084;2023-10-31T05:39:25;99626.47;;;19.83;95.13
66689;BME280;53587;59.318;18.084;2023-10-31T05:41:50;99618.59;;;18.85;74.75
66689;BME280;53587;59.318;18.084;2023-10-31T05:44:15;99624.34;;;17.67;88.19
66689;BME280;53587;59.318;18.084;2023-10-31T05:46:40;99630.66;;;19.15;94.11
66689;BME280;53587;59.318;18.084;2023-10-31T05:49:06;99628.47;;;19.73;93.41
66689;BME280;53587;59.318;18.084;2023-10-31T05:51:31;99624.25;;;18.62;74.04
66689;BME280;53587;59.318;18.084;2023-10-31T05:53:57;99627.88;;;17.91;89.74
66689;BME280;53587;59.318;18.084;2023-10-31T05:56:23;99624.81;;;19.25;94.99
66689;BME280;53587;59.318;18.084;2023-10-31T05:58:48;99629.94;;;19.71;92.68
66689;BME280;53587;59.318;18.084;2023-10-31T06:01:13;99618.34;;;18.37;70.83
66689;BME280;53587;59.318;18.084;2023-10-31T06:03:40;99630.03;;;18.43;91.11
66689;BME280;53587;59.318;18.084;2023-10-31T06:06:07;99633.53;;;19.54;94.84
66689;BME280;53587;59.318;18.084;2023-10-31T06:08:32;99629.34;;;19.39;84.12
66689;BME280;53587;59.318;18.084;2023-10-31T06:10:58;99638.59;;;16.37;71.99
66689;BME280;53587;59.318;18.084;2023-10-31T06:13:25;99651.53;;;18.72;94.02
66689;BME280;53587;59.318;18.084;2023-10-31T06:15:54;99647.50;;;19.66;95.15
66689;BME280;53587;59.318;18.084;2023-10-31T06:18:20;99636.66;;;18.91;79.19
66689;BME280;53587;59.318;18.084;2023-10-31T06:20:45;99640.47;;;17.29;86.13
66689;BME280;53587;59.318;18.084;2023-10-31T06:23:10;99653.38;;;19.03;94.33
66689;BME280;53587;59.318;18.084;2023-10-31T06:25:35;99648.63;;;19.65;92.53
66689;BME280;53587;59.318;18.084;2023-10-31T06:28:01;99653.53;;;18.31;73.00
66689;BME280;53587;59.318;18.084;2023-10-31T06:30:26;99655.81;;;17.75;90.41
66689;BME280;53587;59.318;18.084;2023-10-31T06:32:52;99662.50;;;19.21;95.78
66689;BME280;53587;59.318;18.084;2023-10-31T06:35:18;99671.09;;;19.55;90.12
66689;BME280;53587;59.318;18.084;2023-10-31T06:37:43;99662.06;;;17.90;68.81
66689;BME280;53587;59.318;18.084;2023-10-31T06:40:08;99672.72;;;18.45;92.49
66689;BME280;53587;59.318;18.084;2023-10-31T06:42:35;99673.34;;;19.53;95.78
66689;BME280;53587;59.318;18.084;2023-10-31T06:45:00;99665.09;;;19.35;85.16
66689;BME280;53587;59.318;18.084;2023-10-31T06:47:25;99670.13;;;16.81;70.17
66689;BME280;53587;59.318;18.084;2023-10-31T06:49:50;99677.22;;;18.90;94.00
66689;BME280;53587;59.318;18.084;2023-10-31T06:52:15;99686.97;;;19.75;94.79
66689;BME280;53587;59.318;18.084;2023-10-31T06:54:40;99677.91;;;19.13;77.59
66689;BME280;53587;59.318;18.084;2023-10-31T06:57:06;99681.69;;;17.65;86.02
66689;BME280;53587;59.318;18.084;2023-10-31T06:59:31;99682.81;;;19.17;93.62
66689;BME280;53587;59.318;18.084;2023-10-31T07:01:56;99683.56;;;19.70;91.12
66689;BME280;53587;59.318;18.084;2023-10-31T07:04:22;99678.50;;;18.26;71.33
66689;BME280;53587;59.318;18.084;2023-10-31T07:06:47;99681.78;;;16.50;73.90
66689;BME280;53587;59.318;18.084;2023-10-31T07:09:12;99684.66;;;18.23;92.52
66689;BME280;53587;59.318;18.084;2023-10-31T07:11:37;99681.84;;;19.30;96.43
66689;BME280;53587;59.318;18.084;2023-10-31T07:14:02;99675.63;;;19.33;87.13
66689;BME280;53587;59.318;18.084;2023-10-31T07:16:28;99670.22;;;16.90;68.56
66689;BME280;53587;59.318;18.084;2023-10-31T07:18:54;99677.75;;;18.43;93.60
66689;BME280;53587;59.318;18.084;2023-10-31T07:21:19;99683.59;;;19.52;96.28
66689;BME280;53587;59.318;18.084;2023-10-31T07:23:45;99680.38;;;19.24;82.66
66689;BME280;53587;59.318;18.084;2023-10-31T07:26:10;99685.03;;;16.94;81.29
66689;BME280;53587;59.318;18.084;2023-10-31T07:28:35;99682.25;;;18.88;93.51
66689;BME280;53587;59.318;18.084;2023-10-31T07:31:01;99685.69;;;19.64;93.66
66689;BME280;53587;59.318;18.084;2023-10-31T07:33:26;99693.97;;;18.36;73.54
66689;BME280;53587;59.318;18.084;2023-10-31T07:35:51;99693.66;;;17.38;90.53
66689;BME280;53587;59.318;18.084;2023-10-31T07:38:17;99698.53;;;18.98;95.14
66689;BME280;53587;59.318;18.084;2023-10-31T07:40:43;99697.59;;;19.56;94.63
66689;BME280;53587;59.318;18.084;2023-10-31T07:43:08;99695.22;;;18.30;74.92
66689;BME280;53587;59.318;18.084;2023-10-31T07:45:33;99694.31;;;18.12;90.79
66689;BME280;53587;59.318;18.084;2023-10-31T07:47:58;99701.78;;;19.36;95.79
66689;BME280;53587;59.318;18.084;2023-10-31T07:50:24;99705.22;;;19.41;86.94
66689;BME280;53587;59.318;18.084;2023-10-31T07:52:49;99718.25;;;16.70;68.87
66689;BME280;53587;59.318;18.084;2023-10-31T07:55:14;99705.06;;;18.54;93.85
66689;BME280;53587;59.318;18.084;2023-10-31T07:57:39;99702.94;;;19.61;95.48
66689;BME280;53587;59.318;18.084;2023-10-31T08:00:08;99692.06;;;19.12;80.10
66689;BME280;53587;59.318;18.084;2023-10-31T08:02:35;99698.03;;;17.16;83.92
66689;BME280;53587;59.318;18.084;2023-10-31T08:05:01;99702.13;;;18.99;94.41
66689;BME280;53587;59.318;18.084;2023-10-31T08:07:26;99700.63;;;19.63;91.84
66689;BME280;53587;59.318;18.084;2023-10-31T08:09:55;99700.28;;;18.37;74.39
66689;BME280;53587;59.318;18.084;2023-10-31T08:12:20;99703.78;;;16.22;75.35
66689;BME280;53587;59.318;18.084;2023-10-31T08:14:45;99710.31;;;18.01;92.76
66689;BME280;53587;59.318;18.084;2023-10-31T08:17:11;99704.41;;;19.14;96.26
66689;BME280;53587;59.318;18.084;2023-10-31T08:19:36;99704.91;;;19.34;89.12
66689;BME280;53587;59.318;18.084;2023-10-31T08:22:02;99701.25;;;17.18;68.94
66689;BME280;53587;59.318;18.084;2023-10-31T08:24:27;99696.03;;;18.30;94.13
66689;BME280;53587;59.318;18.084;2023-10-31T08:26:52;99693.03;;;19.42;96.51
66689;BME280;53587;59.318;18.084;2023-10-31T08:29:17;99689.28;;;19.21;81.88
66689;BME280;53587;59.318;18.084;2023-10-31T08:31:42;99695.31;;;16.33;77.33
66689;BME280;53587;59.318;18.084;2023-10-31T08:34:08;99691.63;;;18.70;93.69
66689;BME280;53587;59.318;18.084;2023-10-31T08:36:33;99688.47;;;19.55;94.24
66689;BME280;53587;59.318;18.084;2023-10-31T08:38:58;99682.47;;;18.51;75.49
66689;BME280;53587;59.318;18.084;2023-10-31T08:41:23;99684.84;;;17.50;87.71
66689;BME280;53587;59.318;18.084;2023-10-31T08:43:48;99685.72;;;19.11;95.42
66689;BME280;53587;59.318;18.084;2023-10-31T08:46:14;99682.63;;;19.39;91.13
66689;BME280;53587;59.318;18.084;2023-10-31T08:48:39;99671.25;;;17.31;69.41
66689;BME280;53587;59.318;18.084;2023-10-31T08:51:04;99676.75;;;18.39;92.04
66689;BME280;53587;59.318;18.084;2023-10-31T08:53:29;99668.97;;;19.52;96.09
66689;BME280;53587;59.318;18.084;2023-10-31T08:55:55;99671.09;;;19.02;80.18
66689;BME280;53587;59.318;18.084;2023-10-31T08:58:21;99674.34;;;16.37;74.64
66689;BME280;53587;59.318;18.084;2023-10-31T09:00:46;99668.56;;;18.65;94.25
66689;BME280;53587;59.318;18.084;2023-10-31T09:03:12;99670.75;;;19.56;94.98
66689;BME280;53587;59.318;18.084;2023-10-31T09:05:37;99662.63;;;18.41;74.25
66689;BME280;53587;59.318;18.084;2023-10-31T09:08:02;99670.13;;;17.54;90.74
66689;BME280;53587;59.318;18.084;2023-10-31T09:10:27;99674.19;;;19.09;95.85
66689;BME280;53587;59.318;18.084;2023-10-31T09:12:53;99662.97;;;19.14;85.17
66689;BME280;53587;59.318;18.084;2023-10-31T09:15:18;99663.63;;;16.49;69.32
66689;BME280;53587;59.318;18.084;2023-10-31T09:17:46;99664.44;;;18.45;94.37
66689;BME280;53587;59.318;18.084;2023-10-31T09:20:11;99655.66;;;19.54;96.21
66689;BME280;53587;59.318;18.084;2023-10-31T09:22:37;99651.03;;;18.61;76.07
66689;BME280;53587;59.318;18.084;2023-10-31T09:25:02;99654.69;;;17.45;89.22
66689;BME280;53587;59.318;18.084;2023-10-31T09:27:28;99652.72;;;19.06;94.86
66689;BME280;53587;59.318;18.084;2023-10-31T09:29:53;99654.34;;;19.51;91.15
66689;BME280;53587;59.318;18.084;2023-10-31T09:32:18;99640.53;;;17.92;71.84
66689;BME280;53587;59.318;18.084;2023-10-31T09:34:43;99649.56;;;17.83;90.66
66689;BME280;53587;59.318;18.084;2023-10-31T09:37:09;99644.94;;;19.26;96.25
66689;BME280;53587;59.318;18.084;2023-10-31T09:39:34;99647.06;;;19.29;86.74
66689;BME280;53587;59.318;18.084;2023-10-31T09:41:59;99636.69;;;17.02;69.58
66689;BME280;53587;59.318;18.084;2023-10-31T09:44:25;99630.94;;;18.78;93.36
66689;BME280;53587;59.318;18.084;2023-10-31T09:46:51;99643.41;;;19.72;94.91
66689;BME280;53587;59.318;18.084;2023-10-31T09:49:16;99632.44;;;19.02;78.16
66689;BME280;53587;59.318;18.084;2023-10-31T09:51:42;99635.81;;;17.15;83.82
66689;BME280;53587;59.318;18.084;2023-10-31T09:54:07;99626.13;;;19.02;94.19
66689;BME280;53587;59.318;18.084;2023-10-31T09:56:33;99626.41;;;19.44;90.62
66689;BME280;53587;59.318;18.084;2023-10-31T09:59:00;99615.06;;;18.17;74.64
66689;BME280;53587;59.318;18.084;2023-10-31T10:01:25;99612.91;;;18.72;90.19
66689;BME280;53587;59.318;18.084;2023-10-31T10:03:50;99617.72;;;19.63;95.18
66689;BME280;53587;59.318;18.084;2023-10-31T10:06:16;99605.94;;;19.45;83.98
66689;BME280;53587;59.318;18.084;2023-10-31T10:08:41;99599.31;;;16.36;68.81
66689;BME280;53587;59.318;18.084;2023-10-31T10:11:07;99599.88;;;18.55;91.08
66689;BME280;53587;59.318;18.084;2023-10-31T10:13:32;99613.53;;;19.57;95.90
66689;BME280;53587;59.318;18.084;2023-10-31T10:15:58;99605.00;;;18.97;79.90
66689;BME280;53587;59.318;18.084;2023-10-31T10:18:24;99602.22;;;17.27;81.57
66689;BME280;53587;59.318;18.084;2023-10-31T10:20:56;99614.91;;;18.98;93.44
66689;BME280;53587;59.318;18.084;2023-10-31T10:23:23;99599.84;;;19.69;93.62
66689;BME280;53587;59.318;18.084;2023-10-31T10:25:49;99592.13;;;18.66;73.06
66689;BME280;53587;59.318;18.084;2023-10-31T10:28:14;99597.56;;;18.31;88.40
66689;BME280;53587;59.318;18.084;2023-10-31T10:30:40;99600.56;;;19.49;94.87
66689;BME280;53587;59.318;18.084;2023-10-31T10:33:06;99600.91;;;19.21;80.81
66689;BME280;53587;59.318;18.084;2023-10-31T10:35:31;99589.84;;;17.70;73.01
66689;BME280;53587;59.318;18.084;2023-10-31T10:37:56;99595.75;;;19.10;91.95
66689;BME280;53587;59.318;18.084;2023-10-31T10:40:23;99592.34;;;19.78;94.52
66689;BME280;53587;59.318;18.084;2023-10-31T10:42:49;99591.50;;;19.22;78.51
66689;BME280;53587;59.318;18.084;2023-10-31T10:45:15;99586.75;;;18.61;83.70
66689;BME280;53587;59.318;18.084;2023-10-31T10:47:45;99592.41;;;19.61;93.45
66689;BME280;53587;59.318;18.084;2023-10-31T10:50:10;99585.81;;;19.92;90.17
66689;BME280;53587;59.318;18.084;2023-10-31T10:52:47;99572.81;;;18.75;71.28
66689;BME280;53587;59.318;18.084;2023-10-31T10:55:19;99585.34;;;19.25;88.56
66689;BME280;53587;59.318;18.084;2023-10-31T11:00:15;99578.59;;;19.61;80.35
66689;BME280;53587;59.318;18.084;2023-10-31T11:02:41;99574.09;;;18.60;77.08
66689;BME280;53587;59.318;18.084;2023-10-31T11:05:07;99575.00;;;19.60;90.95
66689;BME280;53587;59.318;18.084;2023-10-31T11:07:33;99574.91;;;19.95;90.03
66689;BME280;53587;59.318;18.084;2023-10-31T11:09:59;99557.72;;;19.07;73.33
66689;BME280;53587;59.318;18.084;2023-10-31T11:12:27;99585.00;;;19.00;88.65
66689;BME280;53587;59.318;18.084;2023-10-31T11:14:53;99577.56;;;19.83;93.71
66689;BME280;53587;59.318;18.084;2023-10-31T11:17:26;99579.84;;;19.72;82.99
66689;BME280;53587;59.318;18.084;2023-10-31T11:19:53;99559.97;;;18.53;69.79
66689;BME280;53587;59.318;18.084;2023-10-31T11:22:19;99552.81;;;18.43;84.50
66689;BME280;53587;59.318;18.084;2023-10-31T11:24:45;99559.00;;;19.36;92.53
66689;BME280;53587;59.318;18.084;2023-10-31T11:27:10;99557.78;;;20.02;93.78
66689;BME280;53587;59.318;18.084;2023-10-31T11:29:36;99544.84;;;19.38;77.82
66689;BME280;53587;59.318;18.084;2023-10-31T11:32:01;99542.63;;;18.52;82.61
66689;BME280;53587;59.318;18.084;2023-10-31T11:34:27;99546.94;;;19.50;92.18
66689;BME280;53587;59.318;18.084;2023-10-31T11:36:52;99541.06;;;19.99;90.78
66689;BME280;53587;59.318;18.084;2023-10-31T11:39:18;99530.78;;;19.04;74.93
66689;BME280;53587;59.318;18.084;2023-10-31T11:41:49;99533.16;;;18.18;87.00
66689;BME280;53587;59.318;18.084;2023-10-31T11:44:15;99547.94;;;19.36;93.73
66689;BME280;53587;59.318;18.084;2023-10-31T11:46:40;99528.50;;;19.62;89.83
66689;BME280;53587;59.318;18.084;2023-10-31T11:49:05;99532.94;;;17.97;69.98
66689;BME280;53587;59.318;18.084;2023-10-31T11:51:32;99524.78;;;18.58;90.13
66689;BME280;53587;59.318;18.084;2023-10-31T11:53:57;99528.34;;;19.59;94.29
66689;BME280;53587;59.318;18.084;2023-10-31T11:56:24;99527.44;;;19.46;82.76
66689;BME280;53587;59.318;18.084;2023-10-31T11:58:56;99523.84;;;17.96;70.69
66689;BME280;53587;59.318;18.084;2023-10-31T12:01:21;99517.88;;;18.03;85.65
66689;BME280;53587;59.318;18.084;2023-10-31T12:03:46;99524.44;;;19.04;93.23
66689;BME280;53587;59.318;18.084;2023-10-31T12:06:15;99513.81;;;19.79;94.14
66689;BME280;53587;59.318;18.084;2023-10-31T12:08:40;99511.28;;;19.01;76.08
66689;BME280;53587;59.318;18.084;2023-10-31T12:11:10;99507.66;;;18.12;84.08
66689;BME280;53587;59.318;18.084;2023-10-31T12:13:39;99511.53;;;19.34;93.39
66689;BME280;53587;59.318;18.084;2023-10-31T12:16:05;99515.59;;;19.75;90.81
66689;BME280;53587;59.318;18.084;2023-10-31T12:18:33;99496.69;;;18.65;74.44
66689;BME280;53587;59.318;18.084;2023-10-31T12:20:58;99507.06;;;16.89;74.17
66689;BME280;53587;59.318;18.084;2023-10-31T12:23:24;99504.97;;;18.47;91.57
66689;BME280;53587;59.318;18.084;2023-10-31T12:25:52;99506.63;;;19.49;96.85
66689;BME280;53587;59.318;18.084;2023-10-31T12:28:21;99498.47;;;18.96;81.03
66689;BME280;53587;59.318;18.084;2023-10-31T12:30:47;99498.34;;;17.50;80.49
66689;BME280;53587;59.318;18.084;2023-10-31T12:33:12;99508.88;;;18.99;91.80
66689;BME280;53587;59.318;18.084;2023-10-31T12:35:38;99490.72;;;19.75;93.72
66689;BME280;53587;59.318;18.084;2023-10-31T12:38:04;99491.47;;;19.07;77.65
66689;BME280;53587;59.318;18.084;2023-10-31T12:40:29;99491.81;;;16.61;68.75
66689;BME280;53587;59.318;18.084;2023-10-31T12:42:54;99489.44;;;17.94;89.09